Megan T Miller — WCW9003 — position and weather

sailwx.info

Track history (hours):
 
Tides and Currents Weather Stations Pressure Air Temp Water Temp Dewpoint Dewpoint Depression Visibility Wind Speed Wind Dir Waves Ship Positions

Megan T Miller

Owner: MILLER MARINE SERVICES INC, PORT JEFFERSON, NY. More information available from US FCC via Universal Licensing System and Coast Guard Vessel Documentation Center.

Last reported at 2017-Jun-16 07:27 UTC. Time now 2017-Jun-27 22:33 UTC.
Position N 41°12' W 072°44'.
Warning: this ship's position is 11 days out of date.

Length 18 m; draft 3 m.

MMSI: 338104509.

Date/timePositionNaut miles runAvg speedWind from/ knotsBaromVisibWave heightAir tempDewpointWater temp
2017-Jun-16 07:27N 41°12' W 072°44'4 8.8
2017-Jun-16 07:00N 41°12' W 072°39'4 9.3
2017-Jun-16 06:31N 41°13' W 072°33'5 9.7
2017-Jun-16 06:00N 41°13' W 072°26'8 0.3
2017-Jun-15 04:06N 41°13' W 072°16'1 8.0
2017-Jun-15 03:57N 41°13' W 072°17'4 8.1
2017-Jun-15 03:30N 41°13' W 072°22'4 8.0
2017-Jun-15 03:00N 41°12' W 072°27'4 8.7
2017-Jun-15 02:30N 41°12' W 072°33'5 9.1
2017-Jun-15 02:00N 41°11' W 072°39'  
Track history (hours):
 
Tides and Currents Weather Stations Pressure Air Temp Water Temp Dewpoint Dewpoint Depression Visibility Wind Speed Wind Dir Waves Ship Positions

Megan T Miller

Owner: MILLER MARINE SERVICES INC, PORT JEFFERSON, NY. More information available from US FCC via Universal Licensing System and Coast Guard Vessel Documentation Center.

Last reported at 2017-Jun-16 07:27 UTC. Time now 2017-Jun-27 22:33 UTC.
Position N 41°12' W 072°44'.
Warning: this ship's position is 11 days out of date.

Length 18 m; draft 3 m.

MMSI: 338104509.

Date/timePositionNaut miles runAvg speedWind from/ knotsBaromVisibWave heightAir tempDewpointWater temp
2017-Jun-16 07:27N 41°12' W 072°44'4 8.8
2017-Jun-16 07:00N 41°12' W 072°39'4 9.3
2017-Jun-16 06:31N 41°13' W 072°33'5 9.7
2017-Jun-16 06:00N 41°13' W 072°26'8 0.3
2017-Jun-15 04:06N 41°13' W 072°16'1 8.0
2017-Jun-15 03:57N 41°13' W 072°17'4 8.1
2017-Jun-15 03:30N 41°13' W 072°22'4 8.0
2017-Jun-15 03:00N 41°12' W 072°27'4 8.7
2017-Jun-15 02:30N 41°12' W 072°33'5 9.1
2017-Jun-15 02:00N 41°11' W 072°39'  

Dump ship's entire track history